Time;durP1;ratioP1;P1;durP2;ratioP2;P2;SDS_P1;SDS_P2;PMS_P1;PMS_P2;Temp;Humidity;BMP_temperature;BMP_pressure;BME280_temperature;BME280_humidity;BME280_pressure;Samples;Min_cycle;Max_cycle;Signal;HPM_P1;HPM_P2
2022/04/06 00:01:43;;;;;;;4.30;1.08;;;20.10;51.90;;;;;;4523440;31;20602;-70
2022/04/06 00:04:09;;;;;;;3.70;1.27;;;20.10;51.90;;;;;;4523314;31;20454;-68
2022/04/06 00:06:35;;;;;;;3.72;1.35;;;20.10;51.90;;;;;;4523402;31;20083;-69
2022/04/06 00:09:02;;;;;;;4.80;1.38;;;20.10;51.90;;;;;;4523272;31;20068;-68
2022/04/06 00:11:28;;;;;;;4.95;1.20;;;20.10;51.90;;;;;;4508832;31;20557;-68
2022/04/06 00:13:54;;;;;;;3.63;1.13;;;20.00;51.90;;;;;;4523281;31;20088;-68
2022/04/06 00:16:20;;;;;;;3.13;1.02;;;20.00;51.90;;;;;;4523137;31;20151;-69
2022/04/06 00:18:46;;;;;;;3.10;1.00;;;20.00;51.90;;;;;;4523218;31;20413;-68
2022/04/06 00:21:13;;;;;;;4.32;1.08;;;20.00;52.00;;;;;;4523052;31;20087;-68
2022/04/06 00:23:39;;;;;;;3.25;1.00;;;20.00;51.90;;;;;;4525189;31;20186;-68
2022/04/06 00:26:04;;;;;;;5.00;1.20;;;20.00;51.90;;;;;;4524272;31;20069;-68
2022/04/06 00:28:30;;;;;;;4.35;1.10;;;20.00;51.90;;;;;;4523566;31;20461;-68
2022/04/06 00:30:57;;;;;;;2.70;1.13;;;20.00;51.90;;;;;;4524799;31;20494;-68
2022/04/06 00:33:23;;;;;;;3.85;1.10;;;19.90;51.90;;;;;;4524584;31;20072;-68
2022/04/06 00:35:48;;;;;;;4.50;1.40;;;20.00;51.90;;;;;;4524365;31;20130;-68
2022/04/06 00:38:14;;;;;;;3.42;1.00;;;19.90;51.90;;;;;;4524105;31;20210;-68
2022/04/06 00:40:40;;;;;;;3.67;0.90;;;19.90;51.90;;;;;;4523994;31;20092;-68
2022/04/06 00:43:08;;;;;;;3.05;1.13;;;19.90;51.90;;;;;;4524281;31;20087;-68
2022/04/06 00:45:34;;;;;;;3.22;1.00;;;19.90;51.90;;;;;;4524173;31;20607;-68
2022/04/06 00:48:00;;;;;;;4.38;1.20;;;19.90;51.90;;;;;;4523758;31;20210;-68
2022/04/06 00:50:26;;;;;;;3.03;0.90;;;19.90;51.90;;;;;;4524180;31;20103;-68
2022/04/06 00:52:56;;;;;;;4.53;1.25;;;19.90;51.90;;;;;;4524180;31;20076;-67
2022/04/06 00:55:29;;;;;;;3.20;1.10;;;19.90;51.90;;;;;;4524247;31;20076;-68
2022/04/06 00:57:56;;;;;;;3.38;0.82;;;19.90;51.90;;;;;;4524056;31;20410;-68
2022/04/06 01:00:22;;;;;;;3.80;1.13;;;19.90;51.90;;;;;;4524288;31;20080;-68
2022/04/06 01:02:48;;;;;;;3.40;1.08;;;19.90;51.90;;;;;;4523773;31;20119;-68
2022/04/06 01:05:14;;;;;;;3.08;0.90;;;19.90;51.90;;;;;;4509320;31;20065;-68
2022/04/06 01:07:42;;;;;;;2.45;1.10;;;19.80;51.90;;;;;;4523647;31;20099;-68
2022/04/06 01:10:08;;;;;;;3.65;1.15;;;19.80;51.80;;;;;;4523644;31;20309;-68
2022/04/06 01:12:41;;;;;;;4.45;1.23;;;19.80;51.90;;;;;;4523917;31;20493;-68
2022/04/06 01:15:07;;;;;;;2.50;0.98;;;19.80;51.90;;;;;;4524182;31;20214;-68
2022/04/06 01:17:34;;;;;;;3.28;0.95;;;19.80;51.90;;;;;;4524175;31;20108;-68
2022/04/06 01:20:02;;;;;;;2.65;0.88;;;19.80;51.90;;;;;;4523835;31;20091;-68
2022/04/06 01:22:28;;;;;;;3.38;0.95;;;19.80;51.90;;;;;;4523847;31;20120;-68
2022/04/06 01:24:54;;;;;;;4.35;1.30;;;19.80;51.90;;;;;;4523985;31;20149;-68
2022/04/06 01:27:20;;;;;;;2.35;0.93;;;19.80;51.90;;;;;;4523561;31;20502;-68
2022/04/06 01:29:46;;;;;;;3.47;1.02;;;19.80;51.90;;;;;;4523410;31;20072;-68
2022/04/06 01:32:24;;;;;;;4.35;1.65;;;19.80;51.90;;;;;;4523817;31;20068;-68
2022/04/06 01:34:53;;;;;;;4.00;0.93;;;19.80;51.90;;;;;;4523389;31;20501;-67
2022/04/06 01:37:19;;;;;;;2.40;0.98;;;19.70;51.90;;;;;;4523344;31;20178;-68
2022/04/06 01:39:47;;;;;;;3.20;0.98;;;19.70;51.90;;;;;;4522064;31;20069;-68
2022/04/06 01:42:18;;;;;;;2.40;1.00;;;19.70;51.90;;;;;;4522199;31;20077;-68
2022/04/06 01:44:46;;;;;;;2.97;0.98;;;19.70;51.90;;;;;;4519086;31;20216;-68
2022/04/06 01:47:15;;;;;;;2.30;0.85;;;19.70;51.90;;;;;;4521941;31;20497;-69
2022/04/06 01:52:26;;;;;;;2.00;0.77;;;19.70;51.90;;;;;;4523080;31;20080;-68
2022/04/06 01:55:05;;;;;;;2.58;1.10;;;19.70;51.90;;;;;;4523510;31;20169;-68
2022/04/06 01:57:32;;;;;;;2.97;0.90;;;19.70;51.90;;;;;;4523247;31;20216;-68
2022/04/06 01:59:58;;;;;;;3.53;0.90;;;19.60;51.90;;;;;;4523684;31;20152;-68
2022/04/06 02:02:27;;;;;;;2.85;0.90;;;19.70;51.90;;;;;;4523197;31;20603;-68
2022/04/06 02:04:53;;;;;;;2.38;0.88;;;19.60;51.80;;;;;;4525034;31;20192;-68
2022/04/06 02:07:19;;;;;;;4.30;0.95;;;19.70;51.90;;;;;;4539055;31;20080;-68
2022/04/06 02:09:45;;;;;;;3.53;1.10;;;19.70;51.90;;;;;;4539394;31;20208;-68
2022/04/06 02:12:12;;;;;;;2.80;0.98;;;19.60;51.90;;;;;;4539489;31;20210;-68
2022/04/06 02:14:39;;;;;;;3.88;1.17;;;19.60;51.80;;;;;;4538594;31;20481;-68
2022/04/06 02:17:06;;;;;;;2.78;0.90;;;19.60;51.80;;;;;;4522463;31;20076;-68
2022/04/06 02:19:32;;;;;;;3.42;1.05;;;19.60;51.80;;;;;;4522536;31;20221;-68
2022/04/06 02:21:58;;;;;;;3.40;1.08;;;19.60;51.90;;;;;;4522312;31;20249;-68
2022/04/06 02:24:24;;;;;;;3.78;1.08;;;19.60;51.80;;;;;;4522178;31;20083;-68
2022/04/06 02:26:50;;;;;;;3.33;0.93;;;19.60;51.80;;;;;;4521588;31;20522;-68
2022/04/06 02:29:16;;;;;;;4.00;1.33;;;19.60;51.80;;;;;;4521771;31;20152;-68
2022/04/06 02:31:42;;;;;;;2.53;0.82;;;19.60;51.90;;;;;;4522715;31;20284;-68
2022/04/06 02:34:08;;;;;;;2.72;0.82;;;19.60;51.90;;;;;;4523461;31;20242;-68
2022/04/06 02:36:34;;;;;;;3.17;1.15;;;19.60;51.80;;;;;;4523429;31;20176;-68
2022/04/06 02:39:00;;;;;;;2.08;0.80;;;19.50;51.80;;;;;;4523225;31;20134;-68
2022/04/06 02:41:27;;;;;;;2.17;0.80;;;19.60;51.80;;;;;;4523402;31;20112;-68
2022/04/06 02:43:53;;;;;;;2.88;0.95;;;19.60;52.00;;;;;;4508513;31;20084;-68
2022/04/06 02:46:19;;;;;;;5.18;1.20;;;19.50;51.80;;;;;;4523238;31;20087;-68
2022/04/06 02:48:46;;;;;;;2.95;0.98;;;19.50;51.80;;;;;;4522955;31;20532;-68
2022/04/06 02:51:12;;;;;;;2.67;0.90;;;19.50;51.80;;;;;;4523719;31;20539;-68
2022/04/06 02:53:38;;;;;;;3.95;1.00;;;19.50;51.80;;;;;;4526191;31;20172;-68
2022/04/06 02:56:05;;;;;;;3.42;1.13;;;19.50;51.80;;;;;;4511922;31;20265;-68
2022/04/06 02:58:31;;;;;;;2.83;0.85;;;19.50;51.80;;;;;;4525552;31;20080;-68
2022/04/06 03:00:56;;;;;;;3.92;1.30;;;19.50;51.80;;;;;;4525931;31;20087;-68
2022/04/06 03:03:23;;;;;;;2.60;0.90;;;19.50;51.80;;;;;;4525841;31;20107;-68
2022/04/06 03:05:48;;;;;;;2.42;0.80;;;19.50;51.80;;;;;;4525747;31;20116;-68
2022/04/06 03:08:15;;;;;;;3.70;0.93;;;19.40;51.80;;;;;;4525465;31;20556;-68
2022/04/06 03:10:41;;;;;;;4.03;1.00;;;19.50;51.80;;;;;;4525761;31;20230;-68
2022/04/06 03:13:07;;;;;;;4.75;1.15;;;19.40;51.80;;;;;;4511307;31;20072;-68
2022/04/06 03:15:34;;;;;;;3.03;1.02;;;19.50;51.90;;;;;;4525915;31;20079;-68
2022/04/06 03:18:00;;;;;;;2.58;1.00;;;19.40;51.70;;;;;;4525914;31;20421;-68
2022/04/06 03:20:26;;;;;;;2.33;1.10;;;19.50;51.80;;;;;;4525270;31;20076;-68
2022/04/06 03:22:52;;;;;;;3.47;0.82;;;19.40;51.80;;;;;;4525577;31;20084;-68
2022/04/06 03:25:17;;;;;;;2.70;1.10;;;19.40;51.80;;;;;;4525165;31;20065;-68
2022/04/06 03:27:43;;;;;;;3.85;0.90;;;19.40;51.70;;;;;;4525566;31;20069;-68
2022/04/06 03:30:11;;;;;;;4.03;0.93;;;19.40;51.70;;;;;;4510885;31;20076;-68
2022/04/06 03:32:38;;;;;;;2.13;1.00;;;19.40;51.70;;;;;;4525339;31;20072;-68
2022/04/06 03:35:06;;;;;;;3.03;0.90;;;19.40;51.70;;;;;;4525391;31;20202;-68
2022/04/06 03:37:32;;;;;;;3.92;1.10;;;19.40;51.70;;;;;;4525581;31;20092;-68
2022/04/06 03:39:58;;;;;;;2.72;1.10;;;19.40;51.70;;;;;;4525529;31;20076;-68
2022/04/06 03:42:24;;;;;;;2.13;0.90;;;19.40;51.70;;;;;;4525517;31;20052;-68
2022/04/06 03:44:50;;;;;;;3.30;1.15;;;19.40;51.70;;;;;;4524915;31;20115;-68
2022/04/06 03:47:16;;;;;;;2.22;1.00;;;19.40;51.70;;;;;;4525077;31;20139;-68
2022/04/06 03:49:41;;;;;;;2.72;1.10;;;19.40;51.70;;;;;;4525281;31;20214;-68
2022/04/06 03:52:08;;;;;;;2.85;0.90;;;19.40;51.70;;;;;;4525419;31;20068;-68
2022/04/06 03:54:34;;;;;;;2.58;0.80;;;19.40;51.70;;;;;;4525059;31;20167;-68
2022/04/06 03:57:00;;;;;;;2.88;1.00;;;19.30;51.60;;;;;;4524647;31;20125;-68
2022/04/06 03:59:26;;;;;;;4.05;1.13;;;19.30;51.60;;;;;;4524982;31;20188;-68
2022/04/06 04:01:52;;;;;;;2.47;0.95;;;19.30;51.60;;;;;;4524786;31;20069;-68
2022/04/06 04:04:18;;;;;;;2.67;1.10;;;19.30;51.60;;;;;;4524550;31;20409;-68
2022/04/06 04:06:44;;;;;;;2.00;0.73;;;19.30;52.60;;;;;;4510623;31;20072;-68
2022/04/06 04:09:10;;;;;;;2.78;1.08;;;19.30;51.60;;;;;;4524598;31;20068;-68
2022/04/06 04:11:36;;;;;;;2.20;0.98;;;19.30;51.60;;;;;;4524808;31;20493;-70
2022/04/06 04:14:02;;;;;;;3.40;0.98;;;19.30;51.60;;;;;;4524785;31;20133;-68
2022/04/06 04:16:28;;;;;;;3.42;1.00;;;19.30;51.60;;;;;;4524939;31;20186;-68
2022/04/06 04:18:54;;;;;;;1.80;0.90;;;19.30;51.60;;;;;;4524774;31;20198;-68
2022/04/06 04:21:35;;;;;;;1.73;0.90;;;19.30;51.60;;;;;;4524581;31;20479;-68
2022/04/06 04:24:03;;;;;;;2.80;0.90;;;19.30;51.60;;;;;;4524591;31;20087;-68
2022/04/06 04:26:29;;;;;;;3.22;1.02;;;19.30;51.60;;;;;;4524566;31;20128;-68
2022/04/06 04:28:56;;;;;;;3.50;0.98;;;19.20;52.50;;;;;;4524014;31;20084;-68
2022/04/06 04:31:22;;;;;;;3.90;1.00;;;19.20;51.60;;;;;;4524635;31;20080;-68
2022/04/06 04:33:48;;;;;;;2.45;1.02;;;19.20;51.60;;;;;;4524706;31;20096;-68
2022/04/06 04:36:15;;;;;;;1.95;0.80;;;19.20;51.60;;;;;;4524214;31;20152;-68
2022/04/06 04:38:42;;;;;;;4.05;1.00;;;19.20;51.60;;;;;;4524624;31;20402;-68
2022/04/06 04:41:08;;;;;;;2.95;0.77;;;19.20;51.50;;;;;;4510268;31;20506;-68
2022/04/06 04:43:35;;;;;;;2.47;0.70;;;19.20;51.50;;;;;;4524309;31;20080;-69
2022/04/06 04:46:02;;;;;;;4.68;1.20;;;19.20;51.60;;;;;;4523961;31;20084;-68
2022/04/06 04:48:28;;;;;;;4.43;1.00;;;19.20;51.60;;;;;;4523865;31;20073;-68
2022/04/06 04:50:54;;;;;;;3.42;1.02;;;19.20;51.60;;;;;;4523922;31;20056;-68
2022/04/06 04:53:20;;;;;;;3.40;1.23;;;19.20;51.60;;;;;;4523859;31;20403;-68
2022/04/06 04:55:46;;;;;;;4.07;0.93;;;19.20;51.50;;;;;;4524285;31;20072;-68
2022/04/06 04:58:12;;;;;;;3.58;1.00;;;19.20;51.50;;;;;;4509556;31;20107;-68
2022/04/06 05:00:38;;;;;;;2.17;0.95;;;19.20;51.50;;;;;;4496572;31;20394;-68
2022/04/06 05:03:05;;;;;;;3.65;0.90;;;19.20;51.50;;;;;;4524012;31;20405;-69
2022/04/06 05:05:31;;;;;;;3.13;1.10;;;19.20;51.40;;;;;;4509586;31;20498;-68
2022/04/06 05:07:59;;;;;;;3.00;0.90;;;19.10;51.40;;;;;;4524048;31;20459;-68
2022/04/06 05:10:25;;;;;;;3.20;0.90;;;19.20;51.50;;;;;;4523967;31;20573;-68
2022/04/06 05:12:51;;;;;;;2.80;0.98;;;19.10;51.40;;;;;;4523681;31;20080;-68
2022/04/06 05:15:16;;;;;;;3.15;1.00;;;19.10;51.40;;;;;;4509304;31;20091;-68
2022/04/06 05:17:42;;;;;;;2.67;1.02;;;19.10;51.40;;;;;;4524085;31;20362;-68
2022/04/06 05:20:10;;;;;;;2.22;0.70;;;19.10;51.40;;;;;;4523865;31;20064;-68
2022/04/06 05:22:36;;;;;;;3.50;1.13;;;19.10;51.40;;;;;;4523811;31;20096;-69
2022/04/06 05:25:07;;;;;;;4.50;1.20;;;19.10;51.40;;;;;;4523617;31;20490;-68
2022/04/06 05:27:47;;;;;;;4.47;1.02;;;19.10;51.40;;;;;;4523443;31;20494;-68
2022/04/06 05:30:14;;;;;;;2.85;0.90;;;19.10;51.40;;;;;;4523405;31;20082;-68
2022/04/06 05:32:41;;;;;;;5.63;1.02;;;19.10;51.40;;;;;;4523869;31;20061;-68
2022/04/06 05:35:09;;;;;;;2.90;1.00;;;19.10;51.40;;;;;;4509281;31;20080;-68
2022/04/06 05:37:43;;;;;;;3.58;1.00;;;19.10;51.40;;;;;;4523655;31;20153;-68
2022/04/06 05:40:10;;;;;;;3.22;1.10;;;19.10;51.30;;;;;;4523695;31;20088;-68
2022/04/06 05:42:37;;;;;;;3.80;1.05;;;19.10;51.40;;;;;;4509835;31;20089;-68
2022/04/06 05:45:04;;;;;;;4.00;1.17;;;19.10;51.40;;;;;;4508913;31;20172;-68
2022/04/06 05:47:30;;;;;;;2.88;0.90;;;19.00;51.30;;;;;;4523654;31;20256;-68
2022/04/06 05:49:56;;;;;;;2.90;0.82;;;19.00;51.30;;;;;;4523360;31;20476;-68
2022/04/06 05:52:22;;;;;;;5.07;1.33;;;19.00;51.30;;;;;;4509146;31;20087;-68
2022/04/06 05:54:48;;;;;;;2.55;0.93;;;19.00;51.30;;;;;;4523503;31;20079;-68
2022/04/06 05:57:14;;;;;;;2.40;0.85;;;19.00;51.30;;;;;;4508794;31;20072;-68
2022/04/06 05:59:40;;;;;;;4.35;1.27;;;19.00;51.30;;;;;;4523688;31;20076;-68
2022/04/06 06:02:09;;;;;;;2.78;0.90;;;19.00;51.30;;;;;;4523477;31;20075;-68
2022/04/06 06:04:35;;;;;;;3.33;0.90;;;19.00;51.30;;;;;;4523600;31;20072;-70
2022/04/06 06:07:01;;;;;;;3.10;1.02;;;19.00;51.30;;;;;;4523394;31;20153;-68
2022/04/06 06:09:27;;;;;;;2.35;0.88;;;19.00;51.30;;;;;;4509257;31;20131;-68
2022/04/06 06:11:54;;;;;;;4.38;1.20;;;19.00;51.30;;;;;;4523463;31;20421;-68
2022/04/06 06:14:21;;;;;;;2.83;1.20;;;19.00;51.30;;;;;;4523532;31;20091;-68
2022/04/06 06:16:49;;;;;;;4.22;1.15;;;19.00;51.30;;;;;;4523535;31;20080;-68
2022/04/06 06:19:15;;;;;;;4.13;1.00;;;19.00;51.30;;;;;;4523296;31;20077;-68
2022/04/06 06:21:41;;;;;;;2.88;0.93;;;19.00;51.30;;;;;;4523303;31;20413;-68
2022/04/06 06:24:07;;;;;;;4.10;1.08;;;19.00;51.30;;;;;;4523194;31;20068;-68
2022/04/06 06:26:38;;;;;;;5.30;1.25;;;19.00;51.30;;;;;;4524130;31;20080;-68
2022/04/06 06:29:04;;;;;;;4.18;1.10;;;18.90;51.20;;;;;;4526046;31;20509;-68
2022/04/06 06:31:31;;;;;;;4.40;1.23;;;18.90;51.20;;;;;;4526323;31;20188;-68
2022/04/06 06:34:00;;;;;;;3.63;1.27;;;18.90;51.30;;;;;;4526383;31;20072;-68
2022/04/06 06:36:27;;;;;;;3.75;1.27;;;18.90;51.30;;;;;;4526053;31;20092;-68
2022/04/06 06:38:55;;;;;;;4.72;1.08;;;18.90;51.20;;;;;;4526212;31;20076;-68
2022/04/06 06:41:21;;;;;;;3.28;1.20;;;18.90;51.30;;;;;;4526356;31;20164;-68
2022/04/06 06:43:49;;;;;;;3.38;1.00;;;18.90;51.30;;;;;;4526384;31;20080;-67
2022/04/06 06:46:19;;;;;;;3.75;1.20;;;18.90;51.30;;;;;;4526055;31;20072;-67
2022/04/06 06:48:46;;;;;;;4.32;1.70;;;18.90;51.30;;;;;;4525910;31;20068;-67
2022/04/06 06:51:13;;;;;;;4.60;1.00;;;18.90;51.20;;;;;;4511737;31;20182;-68
2022/04/06 06:53:39;;;;;;;3.38;1.23;;;18.90;51.30;;;;;;4526054;31;20088;-68
2022/04/06 06:56:06;;;;;;;3.55;1.45;;;18.90;51.30;;;;;;4525930;31;20069;-68
2022/04/06 06:58:32;;;;;;;5.15;1.50;;;18.90;51.30;;;;;;4525551;31;20104;-69
2022/04/06 07:00:59;;;;;;;3.67;1.40;;;18.90;51.30;;;;;;4526164;31;20076;-68
2022/04/06 07:03:24;;;;;;;4.97;1.30;;;18.80;51.30;;;;;;4526097;31;20076;-68
2022/04/06 07:05:50;;;;;;;6.95;1.70;;;18.80;52.20;;;;;;4525959;31;20145;-69
2022/04/06 07:08:16;;;;;;;7.25;2.13;;;18.80;51.30;;;;;;4525947;31;20153;-68
2022/04/06 07:10:46;;;;;;;7.47;1.60;;;18.80;51.50;;;;;;4525488;31;20479;-69
2022/04/06 07:13:14;;;;;;;4.60;1.80;;;18.70;51.80;;;;;;4525898;31;20131;-69
2022/04/06 07:15:40;;;;;;;7.60;1.48;;;18.80;52.90;;;;;;4525449;31;20141;-68
2022/04/06 07:18:07;;;;;;;3.92;1.40;;;18.80;52.10;;;;;;4511351;31;20095;-68
2022/04/06 07:20:37;;;;;;;6.47;1.60;;;18.80;52.20;;;;;;4525134;31;20076;-68
2022/04/06 07:23:04;;;;;;;5.18;1.40;;;18.80;52.20;;;;;;4511685;31;20075;-68
2022/04/06 07:25:30;;;;;;;8.95;1.50;;;18.80;52.30;;;;;;4525164;31;20120;-69
2022/04/06 07:27:56;;;;;;;9.63;1.52;;;18.80;52.30;;;;;;4525558;31;20091;-68
2022/04/06 07:30:22;;;;;;;4.72;1.55;;;18.80;52.30;;;;;;4525639;31;20065;-68
2022/04/06 07:32:47;;;;;;;5.55;1.48;;;18.70;52.20;;;;;;4525190;31;20082;-69
2022/04/06 07:35:13;;;;;;;8.15;1.40;;;18.70;52.20;;;;;;4525565;31;20084;-69
2022/04/06 07:37:42;;;;;;;3.47;1.40;;;18.80;52.30;;;;;;4525197;31;20328;-68
2022/04/06 07:40:10;;;;;;;7.63;1.80;;;18.70;52.30;;;;;;4510982;31;20064;-69
2022/04/06 07:42:37;;;;;;;4.63;1.42;;;18.80;52.40;;;;;;4525484;31;20218;-68
2022/04/06 07:45:13;;;;;;;2.85;1.33;;;18.70;52.30;;;;;;4525452;31;20557;-68
2022/04/06 07:47:40;;;;;;;5.40;1.80;;;18.80;52.40;;;;;;4511624;31;20594;-68
2022/04/06 07:50:08;;;;;;;8.05;1.45;;;18.70;52.40;;;;;;4510403;31;20068;-68
2022/04/06 07:52:36;;;;;;;6.00;1.50;;;18.80;52.50;;;;;;4525331;31;20165;-69
2022/04/06 07:55:04;;;;;;;7.03;1.90;;;18.80;52.50;;;;;;4497878;31;20076;-68
2022/04/06 07:57:30;;;;;;;6.88;1.60;;;18.90;52.50;;;;;;4524940;31;20231;-69
2022/04/06 07:59:57;;;;;;;4.57;1.25;;;19.00;52.40;;;;;;4525334;31;20084;-67
2022/04/06 08:02:24;;;;;;;6.28;1.58;;;19.10;52.20;;;;;;4525112;31;20092;-68
2022/04/06 08:04:50;;;;;;;6.07;1.42;;;19.30;52.10;;;;;;4525050;31;20452;-68
2022/04/06 08:07:16;;;;;;;6.65;1.67;;;19.30;51.80;;;;;;4525097;31;20076;-68
2022/04/06 08:09:42;;;;;;;5.57;1.48;;;19.40;51.60;;;;;;4524840;31;20064;-69
2022/04/06 08:12:08;;;;;;;5.82;1.67;;;19.60;51.40;;;;;;4519089;31;20068;-70
2022/04/06 08:14:34;;;;;;;4.88;1.35;;;19.70;51.20;;;;;;4540864;31;20084;-68
2022/04/06 08:17:00;;;;;;;5.53;1.60;;;19.80;51.00;;;;;;4526115;31;20122;-69
2022/04/06 08:19:26;;;;;;;4.88;1.52;;;19.80;50.70;;;;;;4523525;31;20083;-68
2022/04/06 08:21:53;;;;;;;4.43;1.50;;;19.90;50.70;;;;;;4509513;31;20127;-67
2022/04/06 08:24:19;;;;;;;6.22;1.52;;;19.90;50.70;;;;;;4525807;31;20135;-69
2022/04/06 08:26:46;;;;;;;5.65;1.30;;;20.00;50.70;;;;;;4509492;31;20200;-69
2022/04/06 08:29:12;;;;;;;4.80;1.40;;;20.00;50.70;;;;;;4523499;31;20096;-69
2022/04/06 08:31:38;;;;;;;8.55;1.20;;;20.00;50.70;;;;;;4524755;31;20072;-69
2022/04/06 08:34:06;;;;;;;8.07;1.38;;;19.90;50.80;;;;;;4523835;31;20173;-68
2022/04/06 08:36:35;;;;;;;4.60;1.30;;;19.90;50.90;;;;;;4537548;31;20096;-68
2022/04/06 08:39:02;;;;;;;5.93;1.25;;;19.90;51.10;;;;;;4539740;31;20094;-69
2022/04/06 08:41:30;;;;;;;7.10;1.45;;;19.80;51.20;;;;;;4530535;31;20096;-69
2022/04/06 08:43:59;;;;;;;5.15;1.42;;;19.80;51.30;;;;;;4537975;31;20080;-68
2022/04/06 08:46:25;;;;;;;6.43;1.30;;;19.80;51.40;;;;;;4539605;31;20139;-68
2022/04/06 08:48:52;;;;;;;3.50;1.20;;;19.70;51.60;;;;;;4538725;31;20099;-71
2022/04/06 08:51:19;;;;;;;6.07;1.42;;;19.70;51.70;;;;;;4525179;31;20079;-69
2022/04/06 08:53:47;;;;;;;5.15;1.63;;;19.60;51.80;;;;;;4527655;31;20602;-70
2022/04/06 08:56:14;;;;;;;6.40;1.52;;;19.60;52.00;;;;;;4539222;31;20388;-68
2022/04/06 08:58:40;;;;;;;3.75;1.20;;;19.60;52.10;;;;;;4539979;31;20700;-67
2022/04/06 09:01:07;;;;;;;7.25;1.80;;;19.50;53.10;;;;;;4540284;31;20076;-67
2022/04/06 09:03:37;;;;;;;6.38;1.60;;;19.50;52.40;;;;;;4539895;31;20103;-68
2022/04/06 09:06:11;;;;;;;6.47;1.83;;;19.50;52.50;;;;;;4525008;31;20213;-68
2022/04/06 09:08:46;;;;;;;8.93;1.85;;;19.60;52.60;;;;;;4539473;31;20164;-68
2022/04/06 09:11:13;;;;;;;6.22;1.55;;;19.70;52.60;;;;;;4530179;31;20367;-67
2022/04/06 09:13:42;;;;;;;6.15;1.80;;;19.70;52.50;;;;;;4537961;31;20095;-68
2022/04/06 09:16:10;;;;;;;5.50;1.40;;;19.80;52.50;;;;;;4534982;31;20301;-68
2022/04/06 09:18:43;;;;;;;7.95;1.65;;;19.90;52.40;;;;;;4537612;31;20072;-67
2022/04/06 09:21:14;;;;;;;6.03;1.90;;;20.00;52.30;;;;;;4539933;31;20080;-67
2022/04/06 09:23:40;;;;;;;4.90;1.40;;;20.10;52.20;;;;;;4539766;31;20127;-69
2022/04/06 09:26:14;;;;;;;4.38;1.63;;;20.20;52.10;;;;;;4539174;31;20213;-68
2022/04/06 09:28:46;;;;;;;7.55;1.80;;;20.30;52.00;;;;;;4539071;31;20162;-68
2022/04/06 09:31:16;;;;;;;5.57;1.50;;;20.40;51.80;;;;;;4539236;31;20212;-68
2022/04/06 09:33:53;;;;;;;8.70;2.03;;;20.50;51.60;;;;;;4524854;31;20075;-68
2022/04/06 09:36:20;;;;;;;6.78;1.40;;;20.60;51.70;;;;;;4524848;31;20126;-67
2022/04/06 09:38:53;;;;;;;7.32;1.50;;;20.70;51.50;;;;;;4539123;31;20072;-67
2022/04/06 09:41:19;;;;;;;4.00;1.40;;;20.80;51.30;;;;;;4539077;31;20222;-68
2022/04/06 09:43:47;;;;;;;5.20;1.40;;;20.90;51.20;;;;;;4539032;31;20068;-68
2022/04/06 09:49:19;;;;;;;9.48;1.67;;;21.10;51.00;;;;;;4536024;31;20610;-68
2022/04/06 09:51:48;;;;;;;6.88;1.30;;;21.30;50.90;;;;;;4522999;31;20092;-67
2022/04/06 09:54:15;;;;;;;7.03;1.63;;;21.30;50.80;;;;;;4537574;31;20513;-68
2022/04/06 09:56:42;;;;;;;5.28;1.35;;;21.40;50.70;;;;;;4538913;31;20215;-68
2022/04/06 09:59:10;;;;;;;4.82;1.45;;;21.50;50.70;;;;;;4519875;31;20068;-67
2022/04/06 10:01:39;;;;;;;7.50;1.65;;;21.50;50.60;;;;;;4511890;31;20210;-68
2022/04/06 10:04:07;;;;;;;6.57;1.50;;;21.60;50.60;;;;;;4526590;31;20068;-67
2022/04/06 10:06:38;;;;;;;4.22;1.13;;;21.60;50.40;;;;;;4526846;31;20600;-68
2022/04/06 10:09:15;;;;;;;4.47;1.27;;;21.70;50.50;;;;;;4526959;31;20538;-68
2022/04/06 10:11:42;;;;;;;8.77;1.70;;;21.70;50.50;;;;;;4526755;31;20206;-67
2022/04/06 10:14:10;;;;;;;5.00;1.52;;;21.70;50.50;;;;;;4535444;31;20072;-67
2022/04/06 10:16:38;;;;;;;5.30;1.80;;;21.60;50.70;;;;;;4541917;31;20123;-68
2022/04/06 10:19:13;;;;;;;6.07;1.40;;;21.60;50.90;;;;;;4541897;31;20221;-67
2022/04/06 10:21:55;;;;;;;5.13;1.45;;;21.50;51.10;;;;;;4541953;31;20159;-67
2022/04/06 10:24:42;;;;;;;5.95;1.40;;;21.40;51.30;;;;;;4541793;31;20193;-68
2022/04/06 10:27:26;;;;;;;9.35;1.60;;;21.40;51.60;;;;;;4527195;31;20072;-67
2022/04/06 10:30:13;;;;;;;4.28;1.20;;;21.20;51.70;;;;;;4541507;31;20413;-67
2022/04/06 10:32:48;;;;;;;6.47;1.50;;;21.20;52.00;;;;;;4538511;31;20207;-67
2022/04/06 10:35:32;;;;;;;7.03;1.67;;;21.10;52.20;;;;;;4525802;31;20078;-68
2022/04/06 10:37:58;;;;;;;7.80;1.52;;;21.00;52.30;;;;;;4538151;31;20689;-68
2022/04/06 10:40:25;;;;;;;6.00;1.45;;;20.90;52.50;;;;;;4540969;31;20079;-68
2022/04/06 10:42:51;;;;;;;4.13;1.30;;;20.80;52.60;;;;;;4540751;31;20232;-68
2022/04/06 10:45:27;;;;;;;7.47;1.40;;;20.80;52.90;;;;;;4541045;31;20594;-68
2022/04/06 10:48:20;;;;;;;6.78;1.80;;;20.70;52.90;;;;;;4532570;31;20409;-69
2022/04/06 10:50:48;;;;;;;6.18;1.52;;;20.60;52.90;;;;;;4540898;31;20078;-68
2022/04/06 10:53:20;;;;;;;5.85;1.30;;;20.50;52.90;;;;;;4538564;31;20217;-68
2022/04/06 10:56:11;;;;;;;6.97;1.60;;;20.50;53.00;;;;;;4540600;31;20173;-68
2022/04/06 10:58:55;;;;;;;8.55;1.70;;;20.50;53.00;;;;;;4528072;31;20084;-68
2022/04/06 11:01:26;;;;;;;8.27;1.40;;;20.40;53.00;;;;;;4524291;31;20123;-69
2022/04/06 11:03:59;;;;;;;5.88;1.40;;;20.30;53.10;;;;;;4529481;31;20090;-67
2022/04/06 11:06:41;;;;;;;3.97;1.20;;;20.30;53.10;;;;;;4540715;31;20087;-67
2022/04/06 11:12:12;;;;;;;6.60;1.40;;;20.20;53.20;;;;;;4524775;31;20072;-68
2022/04/06 11:14:39;;;;;;;5.35;1.52;;;20.20;53.30;;;;;;4525949;31;20076;-67
2022/04/06 11:17:32;;;;;;;4.30;1.48;;;20.20;53.40;;;;;;4525510;31;20229;-68
2022/04/06 11:20:18;;;;;;;6.63;1.77;;;20.10;53.30;;;;;;4525430;31;20128;-67
2022/04/06 11:22:53;;;;;;;9.27;1.63;;;20.10;53.30;;;;;;4525663;31;20091;-69
2022/04/06 11:25:22;;;;;;;6.18;1.48;;;20.00;53.40;;;;;;4525808;31;20090;-69
2022/04/06 11:27:49;;;;;;;10.55;1.95;;;20.00;54.30;;;;;;4525348;31;20084;-68
2022/04/06 11:30:17;;;;;;;8.52;1.88;;;20.00;53.40;;;;;;4525461;31;20108;-68
2022/04/06 11:32:53;;;;;;;7.30;2.10;;;20.00;53.40;;;;;;4528690;31;20172;-83
2022/04/06 11:35:20;;;;;;;6.22;1.30;;;20.00;53.50;;;;;;4535079;31;20095;-70
2022/04/06 11:37:48;;;;;;;6.90;1.80;;;19.90;53.50;;;;;;4509865;31;20090;-69
2022/04/06 11:40:39;;;;;;;8.10;1.67;;;19.90;53.50;;;;;;4525143;31;20080;-68
2022/04/06 11:43:05;;;;;;;6.72;1.75;;;19.90;53.50;;;;;;4525635;31;20144;-68
2022/04/06 11:45:33;;;;;;;7.90;2.05;;;19.80;53.60;;;;;;4524903;31;20147;-68
2022/04/06 11:48:02;;;;;;;9.55;2.10;;;19.80;53.60;;;;;;4524948;31;20237;-68
2022/04/06 11:50:34;;;;;;;6.35;1.52;;;19.80;53.60;;;;;;4525297;31;20079;-68
2022/04/06 11:53:24;;;;;;;6.33;1.60;;;19.80;53.50;;;;;;4525341;31;20164;-68
2022/04/06 11:55:54;;;;;;;8.35;1.60;;;19.80;53.50;;;;;;4525241;31;20131;-68
2022/04/06 11:58:42;;;;;;;5.47;1.52;;;19.70;53.50;;;;;;4524839;31;20088;-69
2022/04/06 12:01:14;;;;;;;4.97;1.50;;;19.70;53.50;;;;;;4525167;31;20194;-68
2022/04/06 12:03:42;;;;;;;8.05;2.00;;;19.70;53.50;;;;;;4510638;31;20603;-69
2022/04/06 12:06:10;;;;;;;6.93;1.55;;;19.70;53.50;;;;;;4524879;31;20522;-68
2022/04/06 12:08:38;;;;;;;6.93;1.52;;;19.70;53.40;;;;;;4525093;31;20088;-68
2022/04/06 12:11:05;;;;;;;9.02;1.92;;;19.70;53.40;;;;;;4524867;31;20505;-68
2022/04/06 12:13:33;;;;;;;6.68;1.55;;;19.70;53.40;;;;;;4510133;31;20123;-68
2022/04/06 12:16:00;;;;;;;8.00;1.77;;;19.60;53.40;;;;;;4510238;31;20083;-68
2022/04/06 12:18:27;;;;;;;8.93;1.63;;;19.60;53.40;;;;;;4524484;31;20217;-68
2022/04/06 12:20:54;;;;;;;7.80;1.90;;;19.60;53.40;;;;;;4509918;31;20061;-69
2022/04/06 12:23:23;;;;;;;6.70;1.40;;;19.60;53.40;;;;;;4524581;31;20080;-68
2022/04/06 12:25:49;;;;;;;6.82;2.28;;;19.60;53.40;;;;;;4524415;31;20099;-68
2022/04/06 12:28:23;;;;;;;5.85;1.52;;;19.60;53.30;;;;;;4510205;31;20076;-68
2022/04/06 12:31:06;;;;;;;8.70;1.73;;;19.60;53.30;;;;;;4524533;31;20139;-68
2022/04/06 12:33:47;;;;;;;6.53;1.70;;;19.50;53.20;;;;;;4524515;31;20193;-68
2022/04/06 12:36:23;;;;;;;4.70;1.20;;;19.50;53.20;;;;;;4524408;31;20076;-69
2022/04/06 12:39:10;;;;;;;5.43;1.38;;;19.50;53.20;;;;;;4509852;31;20609;-68
2022/04/06 12:41:53;;;;;;;6.38;1.58;;;19.50;53.20;;;;;;4524140;31;20076;-68
2022/04/06 12:44:20;;;;;;;4.63;1.30;;;19.50;53.20;;;;;;4524939;31;20084;-68
2022/04/06 12:46:48;;;;;;;7.22;1.50;;;19.50;53.20;;;;;;4524069;31;20536;-68
2022/04/06 12:49:35;;;;;;;5.85;1.55;;;19.50;53.20;;;;;;4523770;31;20275;-69
2022/04/06 12:52:06;;;;;;;6.18;1.60;;;19.40;53.00;;;;;;4524247;31;20120;-68
2022/04/06 12:54:33;;;;;;;6.93;1.20;;;19.50;53.10;;;;;;4524159;31;20108;-68
2022/04/06 12:57:13;;;;;;;4.85;1.45;;;19.40;53.00;;;;;;4524105;31;20088;-68
2022/04/06 12:59:59;;;;;;;7.10;1.70;;;19.50;53.00;;;;;;4523627;31;20076;-68
2022/04/06 13:02:29;;;;;;;5.43;1.70;;;19.40;52.90;;;;;;4523887;31;20165;-67
2022/04/06 13:04:58;;;;;;;6.70;1.42;;;19.40;53.00;;;;;;4523972;31;20068;-68